Time;durP1;ratioP1;P1;durP2;ratioP2;P2;SDS_P1;SDS_P2;PMS_P1;PMS_P2;Temp;Humidity;BMP_temperature;BMP_pressure;BME280_temperature;BME280_humidity;BME280_pressure;Samples;Min_cycle;Max_cycle;Signal;HPM_P1;HPM_P2
2021/07/19 00:01:13;;;;;;;;;11.00;10.25;;;;;26.01;48.72;101517.63;5074186;27;45504;-47
2021/07/19 00:03:38;;;;;;;;;8.25;8.25;;;;;26.00;48.95;101521.31;5080332;28;45492;-49
2021/07/19 00:06:04;;;;;;;;;6.75;6.50;;;;;25.97;49.26;101521.56;5081003;27;45406;-52
2021/07/19 00:08:30;;;;;;;;;8.00;8.00;;;;;25.95;48.98;101520.81;5080581;27;45635;-49
2021/07/19 00:10:56;;;;;;;;;9.50;9.25;;;;;25.94;49.16;101513.63;5080836;27;45452;-50
2021/07/19 00:13:24;;;;;;;;;8.75;8.75;;;;;25.93;49.30;101512.75;5062818;27;45671;-50
2021/07/19 00:15:50;;;;;;;;;12.50;12.00;;;;;25.91;49.68;101511.97;5080893;27;47703;-48
2021/07/19 00:18:15;;;;;;;;;14.00;12.00;;;;;25.89;49.82;101516.66;5062576;27;45393;-47
2021/07/19 00:20:41;;;;;;;;;9.50;7.25;;;;;25.88;49.33;101511.34;5080540;27;45321;-48
2021/07/19 00:23:06;;;;;;;;;11.50;10.00;;;;;25.86;49.59;101514.19;5080362;27;45376;-50
2021/07/19 00:25:32;;;;;;;;;10.00;9.50;;;;;25.83;49.50;101516.25;5080477;27;47517;-52
2021/07/19 00:27:57;;;;;;;;;8.75;8.75;;;;;25.79;49.84;101511.06;5080536;27;45456;-50
2021/07/19 00:30:24;;;;;;;;;12.75;10.75;;;;;25.78;49.78;101511.13;5080697;27;45371;-47
2021/07/19 00:32:51;;;;;;;;;10.00;8.50;;;;;25.77;49.91;101512.13;5080595;27;45548;-51
2021/07/19 00:35:16;;;;;;;;;10.50;10.50;;;;;25.75;50.05;101509.50;5080395;27;45624;-52
2021/07/19 00:37:42;;;;;;;;;16.75;16.00;;;;;25.72;49.53;101511.59;5078815;27;45723;-52
2021/07/19 00:40:10;;;;;;;;;6.75;6.75;;;;;25.70;49.55;101513.56;5079768;28;45421;-48
2021/07/19 00:42:37;;;;;;;;;12.00;11.50;;;;;25.66;49.82;101507.44;5080399;27;46288;-48
2021/07/19 00:45:12;;;;;;;;;11.25;10.75;;;;;25.64;49.78;101514.81;5078709;27;47491;-48
2021/07/19 00:47:38;;;;;;;;;11.75;11.25;;;;;25.63;49.59;101513.09;5075440;27;45527;-51
2021/07/19 00:50:04;;;;;;;;;8.25;8.25;;;;;25.60;49.99;101510.59;5045576;27;45391;-48
2021/07/19 00:52:30;;;;;;;;;9.50;9.25;;;;;25.59;49.71;101510.72;5080420;27;45588;-48
2021/07/19 00:54:58;;;;;;;;;9.00;8.00;;;;;25.56;50.25;101511.81;5061446;27;45475;-49
2021/07/19 00:57:24;;;;;;;;;10.00;10.00;;;;;25.55;50.13;101506.50;5075268;28;45769;-48
2021/07/19 00:59:52;;;;;;;;;11.50;10.25;;;;;25.52;49.86;101507.56;5059814;27;45432;-50
2021/07/19 01:02:19;;;;;;;;;8.25;8.25;;;;;25.49;50.42;101508.66;5042039;28;45934;-52
2021/07/19 01:04:46;;;;;;;;;8.75;7.75;;;;;25.46;50.10;101514.31;5039290;27;45527;-50
2021/07/19 01:07:13;;;;;;;;;10.00;10.00;;;;;25.43;50.49;101511.81;5061845;28;45347;-52
2021/07/19 01:09:38;;;;;;;;;8.50;8.50;;;;;25.42;50.06;101515.53;5079798;27;45394;-48
2021/07/19 01:12:05;;;;;;;;;10.00;10.00;;;;;25.39;50.39;101512.13;5061902;28;45569;-52
2021/07/19 01:14:30;;;;;;;;;7.75;7.75;;;;;25.35;50.11;101508.78;5080282;27;47358;-49
2021/07/19 01:16:56;;;;;;;;;8.75;7.75;;;;;25.32;50.63;101499.97;5079495;27;45976;-49
2021/07/19 01:19:24;;;;;;;;;9.00;8.25;;;;;25.33;50.52;101499.88;5079960;27;45428;-50
2021/07/19 01:22:11;;;;;;;;;10.50;9.00;;;;;25.31;50.93;101498.25;5061570;28;45600;-48
2021/07/19 01:25:03;;;;;;;;;8.00;8.00;;;;;25.26;50.80;101498.53;5060745;28;45623;-50
2021/07/19 01:27:53;;;;;;;;;6.75;6.75;;;;;25.25;50.90;101502.25;5079736;27;45649;-50
2021/07/19 01:30:19;;;;;;;;;9.25;9.00;;;;;25.23;50.67;101501.50;5058400;28;45431;-50
2021/07/19 01:32:46;;;;;;;;;8.75;8.75;;;;;25.21;50.67;101495.28;5078583;27;45851;-50
2021/07/19 01:35:14;;;;;;;;;9.75;8.00;;;;;25.19;51.06;101498.13;5079961;28;46381;-49
2021/07/19 01:37:43;;;;;;;;;9.75;9.75;;;;;25.17;51.05;101493.78;5061638;27;45603;-50
2021/07/19 01:40:10;;;;;;;;;9.50;9.50;;;;;25.15;51.01;101493.88;5079728;27;45545;-51
2021/07/19 01:42:36;;;;;;;;;7.75;7.75;;;;;25.13;51.04;101490.41;5061275;27;45477;-48
2021/07/19 01:45:05;;;;;;;;;12.67;11.33;;;;;25.12;51.01;101491.38;5077987;27;47451;-54
2021/07/19 01:47:31;;;;;;;;;10.33;8.00;;;;;25.11;51.14;101496.91;5076380;27;45329;-49
2021/07/19 01:49:59;;;;;;;;;9.33;9.00;;;;;25.10;51.50;101495.19;5079457;28;45438;-46
2021/07/19 01:52:26;;;;;;;;;10.25;10.25;;;;;25.09;51.38;101496.16;5060882;28;45615;-51
2021/07/19 01:54:52;;;;;;;;;7.50;7.50;;;;;25.07;51.34;101500.84;5079574;27;45641;-47
2021/07/19 01:57:18;;;;;;;;;8.50;8.50;;;;;25.06;51.07;101496.38;5058539;28;45646;-50
2021/07/19 01:59:44;;;;;;;;;9.67;9.67;;;;;25.03;51.54;101502.91;5061909;28;45450;-47
2021/07/19 02:02:11;;;;;;;;;11.00;11.00;;;;;25.02;51.39;101501.13;5069919;27;45593;-46
2021/07/19 02:04:37;;;;;;;;;12.50;12.00;;;;;25.01;51.49;101501.25;5061143;27;48561;-49
2021/07/19 02:07:06;;;;;;;;;14.25;13.00;;;;;25.00;51.57;101494.03;5079522;27;45525;-48
2021/07/19 02:09:33;;;;;;;;;14.75;14.00;;;;;24.98;51.57;101494.16;5079255;27;45381;-48
2021/07/19 02:12:01;;;;;;;;;14.25;14.25;;;;;24.97;51.52;101491.56;5079702;27;45583;-48
2021/07/19 02:14:28;;;;;;;;;11.25;11.25;;;;;24.95;51.79;101489.81;5060690;27;46217;-49
2021/07/19 02:16:54;;;;;;;;;13.25;13.25;;;;;24.92;51.30;101492.75;5079127;27;45360;-47
2021/07/19 02:19:23;;;;;;;;;12.75;10.00;;;;;24.90;51.48;101500.16;5079100;27;45508;-51
2021/07/19 02:21:49;;;;;;;;;10.50;9.50;;;;;24.87;51.67;101494.91;5079508;27;45278;-48
2021/07/19 02:24:17;;;;;;;;;12.75;11.50;;;;;24.83;51.64;101490.66;5078454;27;47357;-48
2021/07/19 02:26:43;;;;;;;;;9.00;9.00;;;;;24.81;52.24;101489.03;5079376;27;45454;-52
2021/07/19 02:29:10;;;;;;;;;12.00;12.00;;;;;24.78;51.69;101483.84;5081972;27;45444;-48
2021/07/19 02:31:37;;;;;;;;;11.75;11.00;;;;;24.76;51.92;101489.34;5061999;28;45524;-50
2021/07/19 02:34:04;;;;;;;;;10.25;10.25;;;;;24.74;52.18;101496.72;5061321;28;47297;-51
2021/07/19 02:36:30;;;;;;;;;9.75;9.75;;;;;24.72;52.51;101495.09;5062800;28;45703;-51
2021/07/19 02:38:57;;;;;;;;;12.25;10.25;;;;;24.70;52.41;101503.34;5076020;27;45384;-46
2021/07/19 02:41:25;;;;;;;;;12.00;12.00;;;;;24.67;52.21;101494.56;5079632;27;45837;-50
2021/07/19 02:43:53;;;;;;;;;12.75;11.00;;;;;24.64;52.42;101501.91;5079985;27;46414;-49
2021/07/19 02:46:23;;;;;;;;;10.00;8.25;;;;;24.62;52.25;101506.56;5061105;28;45861;-49
2021/07/19 02:48:54;;;;;;;;;10.00;9.50;;;;;24.59;52.09;101498.66;5080083;27;45353;-51
2021/07/19 02:51:22;;;;;;;;;9.75;8.75;;;;;24.59;52.63;101505.91;5079003;27;45345;-51
2021/07/19 02:53:50;;;;;;;;;11.25;10.00;;;;;24.57;52.56;101500.59;5059755;27;46954;-50
2021/07/19 02:56:17;;;;;;;;;8.00;8.00;;;;;24.54;52.86;101499.94;5060837;28;45700;-52
2021/07/19 02:58:43;;;;;;;;;10.75;10.75;;;;;24.51;53.04;101501.00;5078897;27;45603;-50
2021/07/19 03:01:11;;;;;;;;;11.00;10.00;;;;;24.49;52.94;101492.09;5046718;28;45323;-48
2021/07/19 03:03:38;;;;;;;;;11.00;11.00;;;;;24.47;52.83;101499.47;5079867;27;46385;-51
2021/07/19 03:06:07;;;;;;;;;9.25;9.25;;;;;24.46;52.99;101497.75;5065165;28;45906;-50
2021/07/19 03:08:35;;;;;;;;;12.00;11.00;;;;;24.44;52.76;101499.69;5082159;27;45357;-51
2021/07/19 03:11:06;;;;;;;;;13.50;13.00;;;;;24.43;53.02;101497.09;5082304;27;45598;-51
2021/07/19 03:13:33;;;;;;;;;9.00;7.75;;;;;24.43;53.15;101497.09;5081673;27;48199;-51
2021/07/19 03:16:00;;;;;;;;;10.75;10.00;;;;;24.40;52.95;101490.03;5082124;27;45663;-50
2021/07/19 03:18:26;;;;;;;;;11.25;10.00;;;;;24.39;53.03;101493.69;5082343;27;45456;-50
2021/07/19 03:20:54;;;;;;;;;10.67;10.67;;;;;24.40;53.12;101491.88;5081732;27;45623;-48
2021/07/19 03:23:24;;;;;;;;;11.50;9.75;;;;;24.38;53.35;101493.78;5081412;27;45357;-50
2021/07/19 03:25:52;;;;;;;;;12.00;10.33;;;;;24.36;53.37;101488.47;5082332;27;45263;-50
2021/07/19 03:28:19;;;;;;;;;10.50;10.50;;;;;24.34;53.01;101494.00;5081903;27;45420;-48
2021/07/19 03:30:48;;;;;;;;;14.75;12.75;;;;;24.32;53.60;101487.81;5081981;27;45346;-50
2021/07/19 03:33:14;;;;;;;;;13.33;12.33;;;;;24.30;53.31;101492.47;5081741;27;47003;-50
2021/07/19 03:35:40;;;;;;;;;10.75;10.75;;;;;24.29;53.42;101489.84;5063907;27;45577;-48
2021/07/19 03:38:06;;;;;;;;;12.00;11.25;;;;;24.26;53.32;101490.88;5080137;27;45488;-52
2021/07/19 03:40:32;;;;;;;;;11.25;11.25;;;;;24.25;53.30;101483.72;5082009;27;45858;-48
2021/07/19 03:43:00;;;;;;;;;12.50;11.00;;;;;24.23;53.54;101482.09;5081012;27;48268;-47
2021/07/19 03:45:27;;;;;;;;;10.50;10.50;;;;;24.21;53.45;101475.91;5078833;27;45520;-49
2021/07/19 03:47:54;;;;;;;;;13.00;11.75;;;;;24.18;53.45;101478.84;5078995;27;45314;-49
2021/07/19 03:50:20;;;;;;;;;12.75;11.75;;;;;24.17;53.41;101477.09;5063360;27;45475;-49
2021/07/19 03:52:46;;;;;;;;;12.25;10.25;;;;;24.14;53.56;101475.47;5080840;27;47531;-49
2021/07/19 03:55:15;;;;;;;;;12.50;12.50;;;;;24.13;53.68;101475.53;5081516;27;45529;-51
2021/07/19 03:57:42;;;;;;;;;14.50;13.50;;;;;24.11;53.68;101480.19;5081928;27;45476;-49
2021/07/19 04:00:13;;;;;;;;;9.75;9.75;;;;;24.09;53.67;101480.31;5063652;27;45461;-49
2021/07/19 04:02:42;;;;;;;;;10.75;10.50;;;;;24.08;53.89;101484.84;5072652;27;47879;-49
2021/07/19 04:05:11;;;;;;;;;13.25;13.25;;;;;24.04;53.83;101486.03;5081088;27;45404;-49
2021/07/19 04:07:37;;;;;;;;;13.50;12.00;;;;;24.04;54.06;101487.88;5080911;27;45302;-52
2021/07/19 04:10:06;;;;;;;;;11.00;11.00;;;;;24.01;53.98;101482.63;5063558;28;45447;-50
2021/07/19 04:12:32;;;;;;;;;13.00;13.00;;;;;23.98;53.86;101478.28;5081227;27;48546;-48
2021/07/19 04:14:57;;;;;;;;;11.50;11.50;;;;;23.95;54.18;101473.09;5062537;28;45342;-50
2021/07/19 04:17:23;;;;;;;;;13.00;12.25;;;;;23.93;54.04;101472.31;5081093;27;45404;-48
2021/07/19 04:19:49;;;;;;;;;12.00;12.00;;;;;23.92;54.15;101473.28;5081268;27;45263;-48
2021/07/19 04:22:15;;;;;;;;;14.00;14.00;;;;;23.92;54.32;101469.72;5080813;27;47774;-49
2021/07/19 04:24:41;;;;;;;;;11.00;11.00;;;;;23.88;54.31;101469.00;5080667;27;45322;-50
2021/07/19 04:27:07;;;;;;;;;11.25;10.25;;;;;23.90;54.26;101479.78;5062923;28;45707;-47
2021/07/19 04:29:32;;;;;;;;;11.75;10.75;;;;;23.90;54.24;101468.94;5081138;27;45306;-48
2021/07/19 04:31:59;;;;;;;;;11.25;11.00;;;;;23.89;54.42;101472.63;5080654;27;48561;-48
2021/07/19 04:34:33;;;;;;;;;12.50;12.00;;;;;23.89;54.33;101472.63;5062258;27;46092;-48
2021/07/19 04:37:04;;;;;;;;;15.00;13.75;;;;;23.90;54.45;101477.06;5082177;27;45741;-48
2021/07/19 04:39:30;;;;;;;;;10.75;10.75;;;;;23.90;54.21;101472.53;5081067;27;45538;-48
2021/07/19 04:41:56;;;;;;;;;13.00;12.25;;;;;23.90;54.19;101467.09;5080585;27;47981;-50
2021/07/19 04:44:22;;;;;;;;;12.75;12.75;;;;;23.90;54.22;101471.66;5081453;27;46030;-49
2021/07/19 04:46:50;;;;;;;;;11.25;11.25;;;;;23.89;54.50;101476.22;5075783;27;45468;-47
2021/07/19 04:49:16;;;;;;;;;12.50;12.50;;;;;23.89;54.27;101478.06;5062433;28;45547;-47
2021/07/19 04:51:42;;;;;;;;;12.00;12.00;;;;;23.89;54.12;101478.91;5080141;28;47702;-52
2021/07/19 04:54:09;;;;;;;;;15.75;14.50;;;;;23.88;54.47;101476.28;5079913;27;45348;-47
2021/07/19 04:56:37;;;;;;;;;20.00;17.25;;;;;23.87;54.22;101479.97;5062427;28;45536;-50
2021/07/19 04:59:05;;;;;;;;;13.50;13.00;;;;;23.85;54.54;101477.34;5080387;27;45377;-47
2021/07/19 05:01:33;;;;;;;;;14.33;12.00;;;;;23.85;54.45;101474.66;5075654;27;47352;-51
2021/07/19 05:04:01;;;;;;;;;14.00;13.67;;;;;23.86;54.69;101475.50;5041664;28;46436;-48
2021/07/19 05:06:28;;;;;;;;;15.50;14.00;;;;;23.86;54.48;101480.94;5058641;28;45429;-49
2021/07/19 05:08:56;;;;;;;;;18.25;16.00;;;;;23.85;54.46;101481.91;5040667;28;45749;-49
2021/07/19 05:11:24;;;;;;;;;19.25;16.75;;;;;23.83;54.33;101490.16;5060378;28;47293;-49
2021/07/19 05:13:50;;;;;;;;;12.67;12.67;;;;;23.82;54.50;101490.25;5059566;28;45637;-51
2021/07/19 05:16:16;;;;;;;;;15.25;14.75;;;;;23.81;54.58;101494.81;5060109;28;45260;-51
2021/07/19 05:18:42;;;;;;;;;13.75;13.25;;;;;23.81;54.67;101489.38;5041777;28;45625;-52
2021/07/19 05:21:08;;;;;;;;;14.67;14.67;;;;;23.82;54.55;101498.38;5059846;28;48280;-52
2021/07/19 05:23:36;;;;;;;;;13.00;12.00;;;;;23.81;54.59;101485.81;5059411;28;45993;-48
2021/07/19 05:26:01;;;;;;;;;16.33;16.33;;;;;23.82;54.47;101492.97;5059201;28;45517;-53
2021/07/19 05:28:27;;;;;;;;;15.25;14.25;;;;;23.82;54.54;101488.41;5059360;28;45354;-51
2021/07/19 05:30:53;;;;;;;;;12.25;12.25;;;;;23.78;54.70;101490.47;5057764;28;48258;-51
2021/07/19 05:33:25;;;;;;;;;11.50;11.50;;;;;23.80;54.92;101489.47;5079673;28;45425;-51
2021/07/19 05:35:52;;;;;;;;;15.00;13.25;;;;;23.79;54.97;101496.75;5079922;28;46106;-49
2021/07/19 05:38:19;;;;;;;;;18.25;15.75;;;;;23.78;54.44;101490.47;5061562;28;45472;-50
2021/07/19 05:40:45;;;;;;;;;13.00;12.75;;;;;23.76;54.72;101495.13;5060810;28;47417;-49
2021/07/19 05:43:11;;;;;;;;;15.00;15.00;;;;;23.77;54.73;101498.69;5058933;28;45446;-51
2021/07/19 05:45:39;;;;;;;;;12.25;12.25;;;;;23.74;54.46;101501.56;5066729;28;45318;-49
2021/07/19 05:48:06;;;;;;;;;15.00;15.00;;;;;23.75;54.92;101498.75;5073121;27;45330;-47
2021/07/19 05:50:31;;;;;;;;;16.75;16.00;;;;;23.76;54.60;101500.53;5079259;27;47367;-49
2021/07/19 05:52:57;;;;;;;;;13.75;13.75;;;;;23.77;54.81;101495.97;5060673;27;45322;-48
2021/07/19 05:55:24;;;;;;;;;15.50;14.50;;;;;23.79;55.12;101494.03;5079492;27;45469;-50
2021/07/19 05:57:50;;;;;;;;;15.25;13.50;;;;;23.82;54.69;101496.53;5061271;28;45480;-48
2021/07/19 06:00:16;;;;;;;;;12.33;12.33;;;;;23.83;54.36;101492.84;5079347;27;45706;-48
2021/07/19 06:02:43;;;;;;;;;13.00;13.00;;;;;23.83;54.55;101490.16;5075224;27;45842;-51
2021/07/19 06:05:10;;;;;;;;;13.00;13.00;;;;;23.85;54.61;101490.03;5079231;27;45378;-49
2021/07/19 06:07:35;;;;;;;;;14.00;14.00;;;;;23.87;54.64;101493.53;5079277;27;45332;-46
2021/07/19 06:10:05;;;;;;;;;14.00;14.00;;;;;23.90;55.14;101486.09;5078804;27;46729;-50
2021/07/19 06:12:30;;;;;;;;;17.00;16.75;;;;;23.93;54.81;101494.00;5079097;27;45310;-48
2021/07/19 06:14:56;;;;;;;;;17.00;16.00;;;;;23.94;54.64;101495.75;5078445;28;45236;-51
2021/07/19 06:17:21;;;;;;;;;15.25;14.00;;;;;23.97;54.78;101497.38;5060893;27;45541;-52
2021/07/19 06:19:47;;;;;;;;;15.00;14.75;;;;;23.99;54.63;101496.31;5060925;28;47283;-51
2021/07/19 06:22:13;;;;;;;;;17.25;16.50;;;;;23.97;54.87;101492.81;5078800;28;45231;-48
2021/07/19 06:24:40;;;;;;;;;16.75;16.00;;;;;23.97;54.80;101495.53;5078560;27;45368;-48
2021/07/19 06:27:09;;;;;;;;;14.33;13.00;;;;;23.99;54.74;101490.88;5061260;28;45367;-49
2021/07/19 06:29:34;;;;;;;;;16.25;15.25;;;;;24.01;55.03;101488.97;5060781;28;47682;-49
2021/07/19 06:32:01;;;;;;;;;16.00;13.50;;;;;24.03;54.87;101487.00;5078912;28;45662;-48
2021/07/19 06:34:27;;;;;;;;;16.25;16.25;;;;;24.05;54.84;101489.63;5078721;27;45373;-50
2021/07/19 06:36:53;;;;;;;;;15.67;14.67;;;;;24.07;54.72;101493.09;5078865;28;45326;-50
2021/07/19 06:39:19;;;;;;;;;13.33;12.00;;;;;24.05;54.69;101490.50;5077870;27;48227;-51
2021/07/19 06:41:44;;;;;;;;;16.00;14.25;;;;;24.05;54.73;101487.78;5091417;27;45279;-51
2021/07/19 06:44:10;;;;;;;;;15.75;15.75;;;;;24.06;54.66;101494.94;5065655;28;45407;-49
2021/07/19 06:46:36;;;;;;;;;13.25;13.25;;;;;24.05;54.69;101490.50;5065723;28;45540;-50
2021/07/19 06:49:01;;;;;;;;;13.75;13.75;;;;;24.08;54.93;101486.69;5060113;28;46574;-52
2021/07/19 06:51:27;;;;;;;;;14.75;14.00;;;;;24.11;54.76;101491.91;5060734;28;45703;-50
2021/07/19 06:53:52;;;;;;;;;12.33;12.33;;;;;24.13;55.02;101492.69;5060568;28;45455;-50
2021/07/19 06:56:18;;;;;;;;;16.00;15.50;;;;;24.15;54.86;101487.19;5057573;28;45485;-48
2021/07/19 06:58:44;;;;;;;;;13.75;13.75;;;;;24.15;54.92;101488.06;5059369;28;46858;-51
2021/07/19 07:01:09;;;;;;;;;17.75;15.25;;;;;24.17;54.88;101486.09;5055935;28;45651;-52
2021/07/19 07:03:35;;;;;;;;;15.00;12.75;;;;;24.19;55.07;101484.16;5058206;28;45403;-49
2021/07/19 07:06:00;;;;;;;;;14.25;14.25;;;;;24.23;54.73;101484.81;5062178;27;45577;-48
2021/07/19 07:08:25;;;;;;;;;14.75;13.25;;;;;24.25;54.92;101475.59;5061290;28;47752;-50
2021/07/19 07:10:52;;;;;;;;;17.75;17.25;;;;;24.27;54.60;101481.81;5061556;28;45306;-51
2021/07/19 07:13:18;;;;;;;;;17.00;14.75;;;;;24.29;54.80;101485.28;5061660;28;45270;-52
2021/07/19 07:15:44;;;;;;;;;14.25;14.00;;;;;24.31;54.83;101479.78;5062095;28;45749;-49
2021/07/19 07:18:10;;;;;;;;;15.00;14.25;;;;;24.35;54.91;101489.44;5061594;28;47660;-49
2021/07/19 07:20:37;;;;;;;;;13.25;12.75;;;;;24.38;54.82;101483.81;5056785;28;45399;-50
2021/07/19 07:23:03;;;;;;;;;15.67;14.33;;;;;24.43;54.94;101487.09;5058871;28;45353;-53
2021/07/19 07:25:29;;;;;;;;;15.00;15.00;;;;;24.45;54.76;101484.28;5061625;28;45440;-52
2021/07/19 07:27:54;;;;;;;;;20.00;15.75;;;;;24.49;54.87;101481.25;5061378;28;47861;-51
2021/07/19 07:30:20;;;;;;;;;14.75;14.00;;;;;24.53;54.66;101479.22;5061457;28;45677;-47
2021/07/19 07:32:46;;;;;;;;;13.67;13.00;;;;;24.57;54.60;101478.03;5060987;28;45318;-50
2021/07/19 07:35:13;;;;;;;;;12.50;12.50;;;;;24.60;54.58;101478.66;5061792;28;45478;-48
2021/07/19 07:37:39;;;;;;;;;12.67;11.33;;;;;24.62;54.46;101468.56;5058256;28;46884;-49
2021/07/19 07:40:08;;;;;;;;;14.25;13.75;;;;;24.65;54.08;101478.38;5060867;28;45637;-49
2021/07/19 07:42:33;;;;;;;;;10.00;9.33;;;;;24.66;53.83;101477.41;5072620;28;45421;-52
2021/07/19 07:44:59;;;;;;;;;12.67;11.67;;;;;24.70;53.89;101475.34;5084454;27;45212;-51
2021/07/19 07:47:26;;;;;;;;;10.33;10.33;;;;;24.73;53.09;101481.41;5079903;27;47055;-50
2021/07/19 07:49:52;;;;;;;;;10.00;10.00;;;;;24.77;52.71;101482.94;5062845;28;45419;-51
2021/07/19 07:52:19;;;;;;;;;10.25;10.25;;;;;24.80;52.95;101481.88;5063152;27;45321;-52
2021/07/19 07:54:45;;;;;;;;;10.00;10.00;;;;;24.81;52.68;101475.47;5062995;27;45476;-52
2021/07/19 07:57:11;;;;;;;;;13.00;11.00;;;;;24.83;52.15;101477.09;5081343;27;48688;-52
2021/07/19 07:59:37;;;;;;;;;8.33;8.00;;;;;24.85;52.16;101477.84;5081603;27;45417;-51
2021/07/19 08:02:03;;;;;;;;;10.00;8.33;;;;;24.89;51.80;101476.66;5072937;27;45480;-50
2021/07/19 08:04:29;;;;;;;;;9.67;9.67;;;;;24.94;51.81;101468.22;5081743;27;45379;-52
2021/07/19 08:06:59;;;;;;;;;10.33;10.33;;;;;24.98;51.96;101477.88;5080848;27;48315;-49
2021/07/19 08:09:24;;;;;;;;;8.67;8.33;;;;;25.02;52.03;101470.41;5081096;27;45360;-47
2021/07/19 08:11:51;;;;;;;;;9.00;9.00;;;;;25.07;51.93;101466.41;5080916;27;45441;-48
2021/07/19 08:14:16;;;;;;;;;10.33;8.33;;;;;25.11;51.20;101473.34;5081247;27;45850;-51
2021/07/19 08:16:42;;;;;;;;;9.67;9.67;;;;;25.14;51.21;101470.41;5061987;27;46783;-51
2021/07/19 08:19:09;;;;;;;;;10.00;9.00;;;;;25.19;51.19;101461.94;5080937;27;46007;-49
2021/07/19 08:21:37;;;;;;;;;9.33;7.00;;;;;25.22;51.34;101464.44;5080783;27;45540;-53
2021/07/19 08:24:03;;;;;;;;;8.67;8.67;;;;;25.25;51.15;101453.34;5062024;28;45402;-51
2021/07/19 08:26:29;;;;;;;;;11.33;8.67;;;;;25.28;51.04;101458.56;5062265;28;47324;-50
2021/07/19 08:28:55;;;;;;;;;11.33;8.00;;;;;25.35;50.68;101459.00;5080529;27;45396;-50
2021/07/19 08:31:22;;;;;;;;;8.00;6.00;;;;;25.36;50.66;101452.56;5080622;27;45303;-49
2021/07/19 08:33:49;;;;;;;;;6.33;6.33;;;;;25.41;50.57;101455.81;5080997;27;45345;-49
2021/07/19 08:36:14;;;;;;;;;9.00;9.00;;;;;25.43;50.74;101462.91;5080310;27;47754;-50
2021/07/19 08:38:40;;;;;;;;;9.00;9.00;;;;;25.47;49.88;101463.53;5061820;28;45390;-53
2021/07/19 08:41:07;;;;;;;;;9.33;8.67;;;;;25.51;49.92;101457.75;5066066;27;45402;-49
2021/07/19 08:43:33;;;;;;;;;7.67;7.67;;;;;25.54;49.63;101456.69;5069773;28;45416;-52
2021/07/19 08:46:00;;;;;;;;;8.67;8.00;;;;;25.58;49.61;101460.06;5084476;27;47092;-53
2021/07/19 08:48:26;;;;;;;;;9.33;9.33;;;;;25.61;50.00;101452.53;5077903;27;44749;-49
2021/07/19 08:50:52;;;;;;;;;7.50;7.50;;;;;25.65;49.29;101461.31;5080303;27;45341;-49
2021/07/19 08:53:18;;;;;;;;;7.67;7.33;;;;;25.68;49.00;101458.41;5062100;27;45610;-50
2021/07/19 08:55:49;;;;;;;;;7.00;7.00;;;;;25.73;48.79;101461.69;5080075;27;46249;-48
2021/07/19 08:58:15;;;;;;;;;6.67;6.67;;;;;25.75;48.85;101460.56;5080379;27;45536;-50
2021/07/19 09:00:41;;;;;;;;;7.00;7.00;;;;;25.80;48.65;101460.25;5077803;27;45450;-47
2021/07/19 09:03:07;;;;;;;;;9.67;9.67;;;;;25.84;48.90;101456.31;5056259;28;45492;-49
2021/07/19 09:05:32;;;;;;;;;10.00;8.50;;;;;25.88;48.42;101457.81;5079871;27;47405;-48
2021/07/19 09:07:59;;;;;;;;;8.75;7.50;;;;;25.93;48.42;101452.06;5079830;27;45368;-52
2021/07/19 09:10:26;;;;;;;;;11.00;10.00;;;;;25.96;48.53;101449.09;5080313;27;45255;-49
2021/07/19 09:12:53;;;;;;;;;9.00;6.00;;;;;26.00;48.19;101445.16;5080430;27;45809;-49
2021/07/19 09:15:39;;;;;;;;;9.25;8.50;;;;;26.04;48.61;101446.66;5079575;27;48757;-51
2021/07/19 09:18:06;;;;;;;;;10.50;8.25;;;;;26.07;48.30;101447.31;5060960;27;45433;-51
2021/07/19 09:20:35;;;;;;;;;7.00;7.00;;;;;26.12;47.76;101449.69;5079607;28;45360;-48
2021/07/19 09:23:01;;;;;;;;;10.67;9.33;;;;;26.15;47.92;101443.13;5079580;27;45326;-48
2021/07/19 09:25:27;;;;;;;;;7.00;6.33;;;;;26.19;47.37;101440.09;5079718;27;47176;-50
2021/07/19 09:28:06;;;;;;;;;5.33;5.33;;;;;26.24;47.56;101439.72;5079992;27;45357;-50
2021/07/19 09:30:34;;;;;;;;;7.67;7.33;;;;;26.28;47.32;101443.94;5079855;27;45400;-51
2021/07/19 09:33:00;;;;;;;;;6.33;6.33;;;;;26.31;47.47;101441.00;5078709;27;45310;-50
2021/07/19 09:35:27;;;;;;;;;7.33;7.33;;;;;26.36;47.24;101442.41;5079385;27;45490;-52
2021/07/19 09:37:54;;;;;;;;;8.75;8.75;;;;;26.40;47.69;101446.63;5060715;28;45729;-49
2021/07/19 09:40:28;;;;;;;;;9.75;8.50;;;;;26.43;47.48;101442.81;5079779;28;45405;-46
2021/07/19 09:42:54;;;;;;;;;8.75;8.25;;;;;26.48;46.71;101443.31;5090084;27;45567;-48
2021/07/19 09:45:30;;;;;;;;;9.00;8.00;;;;;26.51;46.86;101443.09;5075013;27;45511;-53
2021/07/19 09:48:07;;;;;;;;;10.00;10.00;;;;;26.54;46.99;101437.41;5057856;28;45465;-49
2021/07/19 09:50:55;;;;;;;;;7.33;6.67;;;;;26.60;46.89;101430.63;5076287;27;45450;-50
2021/07/19 09:53:38;;;;;;;;;8.00;8.00;;;;;26.65;47.00;101432.00;5045441;28;45356;-47
2021/07/19 09:56:15;;;;;;;;;9.00;9.00;;;;;26.71;46.52;101418.91;5079757;27;47151;-49
2021/07/19 09:58:43;;;;;;;;;8.67;8.33;;;;;26.76;46.60;101430.28;5079287;28;45284;-49
2021/07/19 10:01:10;;;;;;;;;7.67;7.67;;;;;26.80;46.40;101423.59;5073501;27;45525;-51
2021/07/19 10:03:35;;;;;;;;;8.00;8.00;;;;;26.83;46.83;101421.53;5059439;27;45397;-50
2021/07/19 10:06:07;;;;;;;;;8.33;8.00;;;;;26.88;46.32;101419.28;5079047;27;47408;-51
2021/07/19 10:08:34;;;;;;;;;9.67;7.33;;;;;26.93;46.29;101418.91;5078527;27;45271;-52
2021/07/19 10:11:00;;;;;;;;;9.00;9.00;;;;;26.97;45.91;101414.97;5079197;27;45394;-50
2021/07/19 10:13:33;;;;;;;;;11.00;11.00;;;;;27.01;45.57;101419.22;5078789;27;45376;-47
2021/07/19 10:16:01;;;;;;;;;8.00;7.00;;;;;27.05;45.99;101423.44;5079092;27;47876;-51
2021/07/19 10:18:30;;;;;;;;;10.00;8.00;;;;;27.09;45.21;101419.50;5061424;27;45479;-51
2021/07/19 10:20:56;;;;;;;;;11.33;9.00;;;;;27.13;45.70;101417.38;5061308;27;46234;-50
2021/07/19 10:23:22;;;;;;;;;10.00;10.00;;;;;27.17;45.67;101421.56;5060650;28;45335;-52
2021/07/19 10:25:47;;;;;;;;;11.67;8.67;;;;;27.20;45.51;101421.34;5079234;27;47520;-48
2021/07/19 10:28:14;;;;;;;;;10.67;9.67;;;;;27.24;45.14;101420.09;5057576;28;45486;-47
2021/07/19 10:30:41;;;;;;;;;10.00;9.33;;;;;27.27;45.51;101419.84;5055602;27;45442;-49
2021/07/19 10:33:06;;;;;;;;;10.67;10.67;;;;;27.33;45.12;101426.69;5076751;27;45572;-49
2021/07/19 10:35:32;;;;;;;;;9.00;9.00;;;;;27.36;44.85;101418.25;5078583;27;46914;-48
2021/07/19 10:38:20;;;;;;;;;12.33;12.33;;;;;27.39;44.87;101418.84;5076614;27;45276;-53
2021/07/19 10:40:52;;;;;;;;;10.33;9.33;;;;;27.42;44.79;101415.88;5078695;28;45362;-48
2021/07/19 10:43:17;;;;;;;;;8.33;8.00;;;;;27.45;44.69;101418.38;5061354;28;45380;-51
2021/07/19 10:45:56;;;;;;;;;8.33;8.33;;;;;27.48;45.35;101412.66;5085666;27;47219;-49
2021/07/19 10:48:27;;;;;;;;;8.67;8.67;;;;;27.52;44.94;101402.38;5056250;28;45947;-52
2021/07/19 10:50:54;;;;;;;;;12.00;10.00;;;;;27.56;45.00;101401.97;5076526;27;45393;-52
2021/07/19 10:53:22;;;;;;;;;8.67;8.67;;;;;27.59;44.30;101400.88;5079073;27;45314;-48
2021/07/19 10:56:08;;;;;;;;;10.00;10.00;;;;;27.60;44.33;101396.28;5078750;27;48030;-50
2021/07/19 10:58:44;;;;;;;;;9.00;8.00;;;;;27.62;44.53;101406.06;5079043;27;45385;-50
2021/07/19 11:01:28;;;;;;;;;8.67;7.33;;;;;27.66;43.93;101406.72;5072766;27;45429;-51
2021/07/19 11:03:57;;;;;;;;;7.75;7.75;;;;;27.68;44.05;101391.94;5075590;27;45606;-47
2021/07/19 11:06:31;;;;;;;;;10.00;10.00;;;;;27.72;43.93;101395.31;5078515;27;47353;-51
2021/07/19 11:08:57;;;;;;;;;11.25;10.25;;;;;27.75;43.89;101395.91;5056601;28;45382;-48
2021/07/19 11:11:34;;;;;;;;;8.00;8.00;;;;;27.77;43.39;101383.00;5073857;27;45307;-51
2021/07/19 11:14:05;;;;;;;;;8.25;7.00;;;;;27.80;43.58;101401.84;5078627;28;45387;-47
2021/07/19 11:16:43;;;;;;;;;9.67;9.67;;;;;27.82;43.02;101390.81;5043116;27;48440;-50